createdAt,value
2018-05-26T00:02:18.991Z,94.30
2018-05-26T00:04:46.497Z,94.30
2018-05-26T00:07:16.400Z,94.40
2018-05-26T00:09:43.944Z,94.30
2018-05-26T00:12:11.457Z,94.20
2018-05-26T00:14:39.011Z,94.20
2018-05-26T00:17:06.525Z,94.40
2018-05-26T00:19:34.080Z,94.40
2018-05-26T00:22:01.589Z,94.20
2018-05-26T00:24:29.126Z,94.20
2018-05-26T00:26:57.404Z,94.10
2018-05-26T00:29:24.946Z,94.10
2018-05-26T00:31:52.455Z,94.10
2018-05-26T00:41:59.904Z,94.30
2018-05-26T00:44:27.414Z,94.20
2018-05-26T00:46:54.959Z,94.30
2018-05-26T00:49:22.482Z,94.30
2018-05-26T00:51:49.994Z,94.20
2018-05-26T00:54:17.536Z,94.20
2018-05-26T00:56:45.050Z,94.20
2018-05-26T00:59:12.604Z,94.30
2018-05-26T01:01:40.114Z,94.30
2018-05-26T01:04:08.340Z,94.30
2018-05-26T01:06:35.864Z,94.20
2018-05-26T01:09:03.412Z,94.20
2018-05-26T01:11:30.926Z,94.30
2018-05-26T01:13:58.472Z,94.30
2018-05-26T01:16:26.400Z,94.30
2018-05-26T01:18:53.961Z,94.20
2018-05-26T01:21:21.475Z,94.20
2018-05-26T01:23:49.027Z,94.20
2018-05-26T01:26:16.536Z,94.20
2018-05-26T01:28:44.044Z,94.30
2018-05-26T01:31:11.600Z,94.30
2018-05-26T01:33:39.116Z,94.40
2018-05-26T01:36:06.676Z,94.40
2018-05-26T01:38:34.191Z,94.40
2018-05-26T01:41:01.736Z,94.50
2018-05-26T01:43:32.215Z,94.40
2018-05-26T01:45:59.792Z,94.40
2018-05-26T01:48:27.313Z,94.40
2018-05-26T01:50:54.840Z,94.40
2018-05-26T01:53:23.158Z,94.70
2018-05-26T01:55:50.672Z,94.30
2018-05-26T01:58:18.210Z,94.30
2018-05-26T02:00:46.488Z,94.40
2018-05-26T02:03:14.795Z,94.30
2018-05-26T02:05:42.308Z,94.30
2018-05-26T02:08:09.872Z,94.30
2018-05-26T02:10:37.383Z,94.40
2018-05-26T02:13:04.936Z,94.30
2018-05-26T02:15:32.479Z,94.30
2018-05-26T02:18:00.088Z,94.40
2018-05-26T02:20:27.816Z,94.30
2018-05-26T02:22:55.334Z,94.30
2018-05-26T02:25:23.447Z,94.20
2018-05-26T02:27:50.960Z,94.00
2018-05-26T02:30:18.504Z,94.10
2018-05-26T02:32:46.027Z,94.30
2018-05-26T02:35:13.563Z,94.20
2018-05-26T02:37:41.844Z,94.40
2018-05-26T02:40:10.156Z,94.40
2018-05-26T02:42:37.681Z,94.30
2018-05-26T02:45:05.216Z,94.40
2018-05-26T02:47:33.508Z,94.30
2018-05-26T02:50:01.832Z,94.30
2018-05-26T02:52:29.348Z,94.30
2018-05-26T02:54:56.904Z,94.20
2018-05-26T02:57:25.185Z,94.10
2018-05-26T02:59:52.708Z,94.10
2018-05-26T03:02:20.267Z,94.20
2018-05-26T03:04:53.536Z,94.30
2018-05-26T03:07:26.779Z,94.40
2018-05-26T03:09:59.854Z,94.40
2018-05-26T03:12:33.074Z,94.40
2018-05-26T03:15:00.104Z,94.50
2018-05-26T03:17:32.281Z,94.30
2018-05-26T03:20:00.571Z,94.40
2018-05-26T03:22:28.267Z,94.40
2018-05-26T03:24:55.796Z,94.40
2018-05-26T03:27:24.675Z,94.40
2018-05-26T03:29:52.947Z,94.40
2018-05-26T03:32:20.496Z,94.40
2018-05-26T03:34:48.019Z,94.50
2018-05-26T03:37:15.578Z,94.40
2018-05-26T03:39:43.083Z,94.40
2018-05-26T03:42:11.402Z,94.40
2018-05-26T03:44:41.811Z,94.40
2018-05-26T03:47:09.371Z,94.50
2018-05-26T03:49:36.887Z,94.50
2018-05-26T03:52:04.396Z,94.70
2018-05-26T03:54:43.771Z,94.80
2018-05-26T03:57:23.091Z,94.80
2018-05-26T04:02:48.140Z,94.70
2018-05-26T04:05:15.657Z,94.60
2018-05-26T04:07:43.285Z,94.70
2018-05-26T04:10:11.629Z,94.80
2018-05-26T04:12:39.175Z,94.70
2018-05-26T04:15:07.193Z,94.70
2018-05-26T04:17:34.708Z,94.60
2018-05-26T04:20:03.588Z,94.60
2018-05-26T04:22:31.105Z,94.60
2018-05-26T04:24:59.421Z,94.60
2018-05-26T04:27:27.147Z,94.50
2018-05-26T04:29:54.687Z,94.60
2018-05-26T04:32:22.963Z,94.90
2018-05-26T04:34:51.271Z,94.70
2018-05-26T04:37:18.812Z,94.70
2018-05-26T04:39:47.134Z,94.60
2018-05-26T04:42:14.650Z,94.50
2018-05-26T04:44:42.212Z,94.50
2018-05-26T04:47:09.739Z,94.50
2018-05-26T04:49:37.249Z,94.50
2018-05-26T04:52:04.787Z,94.60
2018-05-26T04:54:33.512Z,94.60
2018-05-26T04:57:01.059Z,94.70
2018-05-26T04:59:28.566Z,94.70
2018-05-26T05:01:56.116Z,94.80
2018-05-26T05:04:23.650Z,94.80
2018-05-26T05:06:51.191Z,94.90
2018-05-26T05:09:19.027Z,94.80
2018-05-26T05:11:47.346Z,94.90
2018-05-26T05:14:14.865Z,94.90
2018-05-26T05:16:43.201Z,95.00
2018-05-26T05:19:10.709Z,95.00
2018-05-26T05:21:38.247Z,95.00
2018-05-26T05:24:05.754Z,95.10
2018-05-26T05:26:33.279Z,95.10
2018-05-26T05:29:01.558Z,95.00
2018-05-26T05:31:29.100Z,95.00
2018-05-26T05:33:56.603Z,94.90
2018-05-26T05:36:24.151Z,94.90
2018-05-26T05:38:52.103Z,95.10
2018-05-26T05:41:20.366Z,95.00
2018-05-26T05:52:06.123Z,94.70
2018-05-26T05:54:34.387Z,94.40
2018-05-26T05:57:02.776Z,95.00
2018-05-26T05:59:30.296Z,94.90
2018-05-26T06:01:57.835Z,94.70
2018-05-26T06:04:25.380Z,94.50
2018-05-26T06:06:52.925Z,94.30
2018-05-26T06:09:21.698Z,94.30
2018-05-26T06:11:50.499Z,94.50
2018-05-26T06:14:18.045Z,94.40
2018-05-26T06:16:45.564Z,94.10
2018-05-26T06:19:13.126Z,94.00
2018-05-26T06:21:41.856Z,94.40
2018-05-26T06:24:09.402Z,94.20
2018-05-26T06:26:36.916Z,94.00
2018-05-26T06:29:04.459Z,94.20
2018-05-26T06:31:31.959Z,94.80
2018-05-26T06:33:59.516Z,94.30
2018-05-26T06:36:27.040Z,93.70
2018-05-26T06:38:54.579Z,92.80
2018-05-26T06:41:22.094Z,92.40
2018-05-26T06:43:49.652Z,92.70
2018-05-26T06:46:17.153Z,93.10
2018-05-26T06:48:44.712Z,92.20
2018-05-26T06:51:12.234Z,92.10
2018-05-26T06:53:39.779Z,92.80
2018-05-26T06:56:07.276Z,92.60
2018-05-26T06:58:35.391Z,92.70
2018-05-26T07:01:02.904Z,92.40
2018-05-26T07:03:31.173Z,91.70
2018-05-26T07:05:58.736Z,91.40
2018-05-26T07:08:26.248Z,90.20
2018-05-26T07:10:53.827Z,90.60
2018-05-26T07:13:21.343Z,89.40
2018-05-26T07:15:48.913Z,90.20
2018-05-26T07:18:16.433Z,89.70
2018-05-26T07:20:43.979Z,87.50
2018-05-26T07:23:11.484Z,88.00
2018-05-26T07:25:39.410Z,85.10
2018-05-26T07:28:06.915Z,85.50
2018-05-26T07:30:34.455Z,86.50
2018-05-26T07:33:02.726Z,86.40
2018-05-26T07:35:30.240Z,86.40
2018-05-26T07:37:57.771Z,83.70
2018-05-26T07:40:25.280Z,83.50
2018-05-26T07:42:52.812Z,82.30
2018-05-26T07:45:20.322Z,81.90
2018-05-26T07:47:48.636Z,81.40
2018-05-26T07:50:16.158Z,81.40
2018-05-26T07:52:43.715Z,81.00
2018-05-26T07:55:11.999Z,77.90
2018-05-26T07:57:40.301Z,77.40
2018-05-26T08:00:07.855Z,77.50
2018-05-26T08:02:35.357Z,77.10
2018-05-26T08:05:02.859Z,77.30
2018-05-26T08:07:30.413Z,77.10
2018-05-26T08:09:57.971Z,79.00
2018-05-26T08:12:26.251Z,76.00
2018-05-26T08:14:53.804Z,76.00
2018-05-26T08:17:21.345Z,75.80
2018-05-26T08:19:48.908Z,74.60
2018-05-26T08:22:16.430Z,74.70
2018-05-26T08:24:43.985Z,74.00
2018-05-26T08:27:11.547Z,74.00
2018-05-26T08:29:39.202Z,73.70
2018-05-26T08:32:06.771Z,72.20
2018-05-26T08:34:34.353Z,71.30
2018-05-26T08:37:01.986Z,70.50
2018-05-26T08:39:29.553Z,71.30
2018-05-26T08:41:57.097Z,70.50
2018-05-26T08:44:24.725Z,70.80
2018-05-26T08:46:53.073Z,70.70
2018-05-26T08:49:20.602Z,70.60
2018-05-26T08:51:48.158Z,66.90
2018-05-26T08:54:15.698Z,68.30
2018-05-26T08:56:43.331Z,68.00
2018-05-26T08:59:11.640Z,65.70
2018-05-26T09:01:39.208Z,65.60
2018-05-26T09:04:06.773Z,64.20
2018-05-26T09:06:35.815Z,64.90
2018-05-26T09:09:03.367Z,65.50
2018-05-26T09:11:31.776Z,66.30
2018-05-26T09:13:59.323Z,67.40
2018-05-26T09:16:26.920Z,63.80
2018-05-26T09:18:54.487Z,63.50
2018-05-26T09:21:22.037Z,64.00
2018-05-26T09:23:49.630Z,63.00
2018-05-26T09:26:17.177Z,62.50
2018-05-26T09:28:44.783Z,62.80
2018-05-26T09:31:12.336Z,62.60
2018-05-26T09:33:39.884Z,60.90
2018-05-26T09:36:07.420Z,60.90
2018-05-26T09:38:35.016Z,60.50
2018-05-26T09:41:02.564Z,58.50
2018-05-26T09:43:30.170Z,58.10
2018-05-26T09:45:57.725Z,58.50
2018-05-26T09:48:25.330Z,57.70
2018-05-26T09:50:52.872Z,58.20
2018-05-26T09:53:20.411Z,58.90
2018-05-26T09:55:47.973Z,59.20
2018-05-26T09:58:15.537Z,57.80
2018-05-26T10:00:43.204Z,57.90
2018-05-26T10:03:10.771Z,57.10
2018-05-26T10:05:38.340Z,57.10
2018-05-26T10:08:05.880Z,56.60
2018-05-26T10:10:33.472Z,57.60
2018-05-26T10:13:01.000Z,57.30
2018-05-26T10:15:28.566Z,58.20
2018-05-26T10:17:56.119Z,57.60
2018-05-26T10:20:23.690Z,57.90
2018-05-26T10:22:51.229Z,58.20
2018-05-26T10:25:18.810Z,58.40
2018-05-26T10:27:46.429Z,59.70
2018-05-26T10:30:14.761Z,57.30
2018-05-26T10:32:42.342Z,57.30
2018-05-26T10:35:09.889Z,56.90
2018-05-26T10:37:37.539Z,58.20
2018-05-26T10:40:05.080Z,57.40
2018-05-26T10:42:32.657Z,56.80
2018-05-26T10:45:00.193Z,57.00
2018-05-26T10:47:27.771Z,57.10
2018-05-26T10:49:55.353Z,57.20
2018-05-26T10:52:22.891Z,56.10
2018-05-26T10:54:50.455Z,55.00
2018-05-26T10:57:18.029Z,55.80
2018-05-26T10:59:45.603Z,56.50
2018-05-26T11:02:13.148Z,56.40
2018-05-26T11:04:40.714Z,55.40
2018-05-26T11:07:08.235Z,56.20
2018-05-26T11:09:35.829Z,53.80
2018-05-26T11:12:03.407Z,54.30
2018-05-26T11:14:31.037Z,55.90
2018-05-26T11:16:58.549Z,56.60
2018-05-26T11:19:26.123Z,52.10
2018-05-26T11:21:53.673Z,53.30
2018-05-26T11:24:21.326Z,51.90
2018-05-26T11:26:48.819Z,54.80
2018-05-26T11:29:16.394Z,54.70
2018-05-26T11:31:43.969Z,54.70
2018-05-26T11:34:11.511Z,53.20
2018-05-26T11:36:39.068Z,53.10
2018-05-26T11:39:06.572Z,49.90
2018-05-26T11:41:34.130Z,48.40
2018-05-26T11:44:02.052Z,47.60
2018-05-26T11:46:29.599Z,49.00
2018-05-26T11:48:57.127Z,46.50
2018-05-26T11:51:25.441Z,48.20
2018-05-26T11:53:52.948Z,48.10
2018-05-26T11:56:20.486Z,47.30
2018-05-26T11:58:48.027Z,47.50
2018-05-26T12:01:15.538Z,46.00
2018-05-26T12:03:43.864Z,44.90
2018-05-26T12:06:11.391Z,44.90
2018-05-26T12:08:39.696Z,43.60
2018-05-26T12:11:07.271Z,43.60
2018-05-26T12:13:35.539Z,44.00
2018-05-26T12:16:03.047Z,44.00
2018-05-26T12:18:31.371Z,43.20
2018-05-26T12:20:58.870Z,43.20
2018-05-26T12:23:26.415Z,44.20
2018-05-26T12:25:53.918Z,45.20
2018-05-26T12:28:21.451Z,43.90
2018-05-26T12:30:48.987Z,43.70
2018-05-26T12:33:16.505Z,44.40
2018-05-26T12:35:44.051Z,44.70
2018-05-26T12:38:12.331Z,42.20
2018-05-26T12:40:39.871Z,42.10
2018-05-26T12:43:07.379Z,42.70
2018-05-26T12:45:34.933Z,42.20
2018-05-26T12:48:03.211Z,43.90
2018-05-26T12:50:30.744Z,43.90
2018-05-26T12:52:58.255Z,43.40
2018-05-26T12:55:26.559Z,44.00
2018-05-26T12:57:54.082Z,43.90
2018-05-26T13:00:21.621Z,43.70
2018-05-26T13:02:49.127Z,43.50
2018-05-26T13:05:16.686Z,44.20
2018-05-26T13:07:44.959Z,43.30
2018-05-26T13:10:13.219Z,43.20
2018-05-26T13:12:40.735Z,43.60
2018-05-26T13:15:08.226Z,43.10
2018-05-26T13:17:35.783Z,42.50
2018-05-26T13:20:03.291Z,44.80
2018-05-26T13:22:31.602Z,42.60
2018-05-26T13:24:59.107Z,42.50
2018-05-26T13:27:27.237Z,42.80
2018-05-26T13:29:54.739Z,42.40
2018-05-26T13:32:22.276Z,44.00
2018-05-26T13:34:49.775Z,42.10
2018-05-26T13:37:17.311Z,41.80
2018-05-26T13:39:44.823Z,42.10
2018-05-26T13:42:12.365Z,40.00
2018-05-26T13:44:40.195Z,41.50
2018-05-26T13:47:07.736Z,42.20
2018-05-26T13:49:35.261Z,42.80
2018-05-26T13:52:02.890Z,41.80
2018-05-26T13:54:30.331Z,43.10
2018-05-26T13:56:57.839Z,42.70
2018-05-26T13:59:25.379Z,44.50
2018-05-26T14:01:52.890Z,44.20
2018-05-26T14:04:20.422Z,45.50
2018-05-26T14:06:47.946Z,47.40
2018-05-26T14:09:15.493Z,46.70
2018-05-26T14:11:43.000Z,47.10
2018-05-26T14:14:10.548Z,47.10
2018-05-26T14:16:38.138Z,45.90
2018-05-26T14:19:05.599Z,46.00
2018-05-26T14:21:33.125Z,45.00
2018-05-26T14:24:00.683Z,46.70
2018-05-26T14:26:28.191Z,46.90
2018-05-26T14:28:55.728Z,46.70
2018-05-26T14:31:23.233Z,46.40
2018-05-26T14:33:51.556Z,47.80
2018-05-26T14:36:19.117Z,47.70
2018-05-26T14:38:46.611Z,48.10
2018-05-26T14:41:14.166Z,48.10
2018-05-26T14:43:41.671Z,47.80
2018-05-26T14:46:09.218Z,48.50
2018-05-26T14:48:37.490Z,48.40
2018-05-26T14:51:05.810Z,49.40
2018-05-26T14:53:33.325Z,49.30
2018-05-26T14:56:00.874Z,49.10
2018-05-26T14:58:28.398Z,49.00
2018-05-26T15:00:55.964Z,49.00
2018-05-26T15:03:23.478Z,48.70
2018-05-26T15:05:51.024Z,49.70
2018-05-26T15:08:18.531Z,50.10
2018-05-26T15:10:46.078Z,51.80
2018-05-26T15:13:14.395Z,49.40
2018-05-26T15:15:41.904Z,49.40
2018-05-26T15:18:09.433Z,50.30
2018-05-26T15:20:37.845Z,52.40
2018-05-26T15:23:05.357Z,52.20
2018-05-26T15:25:32.870Z,52.40
2018-05-26T15:28:00.415Z,49.20
2018-05-26T15:30:27.939Z,49.10
2018-05-26T15:32:55.484Z,49.90
2018-05-26T15:35:22.997Z,50.10
2018-05-26T15:37:50.571Z,50.80
2018-05-26T15:40:18.075Z,51.10
2018-05-26T15:42:45.620Z,52.20
2018-05-26T15:45:13.152Z,52.10
2018-05-26T15:47:40.673Z,51.60
2018-05-26T15:50:08.185Z,51.80
2018-05-26T15:52:35.730Z,52.10
2018-05-26T15:55:03.240Z,52.60
2018-05-26T15:57:30.788Z,53.70
2018-05-26T15:59:58.316Z,54.40
2018-05-26T16:02:25.855Z,53.50
2018-05-26T16:04:53.360Z,52.80
2018-05-26T16:07:20.911Z,52.70
2018-05-26T16:09:48.415Z,53.00
2018-05-26T16:12:15.917Z,55.10
2018-05-26T16:14:43.470Z,53.50
2018-05-26T16:17:10.977Z,53.20
2018-05-26T16:19:38.515Z,53.50
2018-05-26T16:22:06.030Z,54.50
2018-05-26T16:24:33.576Z,55.40
2018-05-26T16:27:01.082Z,55.80
2018-05-26T16:29:28.634Z,54.30
2018-05-26T16:31:56.168Z,53.70
2018-05-26T16:34:23.708Z,54.00
2018-05-26T16:36:51.213Z,54.30
2018-05-26T16:39:18.749Z,54.40
2018-05-26T16:41:46.246Z,53.90
2018-05-26T16:44:13.793Z,54.70
2018-05-26T16:46:41.297Z,55.10
2018-05-26T16:49:08.841Z,55.80
2018-05-26T16:51:37.123Z,54.90
2018-05-26T16:54:05.395Z,55.80
2018-05-26T16:56:33.704Z,57.30
2018-05-26T16:59:01.283Z,57.30
2018-05-26T17:01:28.823Z,58.20
2018-05-26T17:03:56.333Z,57.70
2018-05-26T17:06:23.931Z,57.80
2018-05-26T17:08:51.466Z,58.20
2018-05-26T17:11:19.010Z,56.90
2018-05-26T17:13:46.516Z,56.50
2018-05-26T17:16:14.471Z,56.40
2018-05-26T17:18:41.998Z,57.10
2018-05-26T17:21:09.555Z,57.80
2018-05-26T17:23:37.069Z,58.30
2018-05-26T17:26:04.616Z,58.70
2018-05-26T17:28:32.143Z,58.70
2018-05-26T17:30:59.693Z,59.10
2018-05-26T17:33:27.213Z,59.30
2018-05-26T17:35:54.768Z,59.40
2018-05-26T17:38:22.295Z,59.60
2018-05-26T17:40:50.596Z,61.20
2018-05-26T17:43:18.156Z,61.10
2018-05-26T17:45:45.662Z,60.50
2018-05-26T17:48:13.198Z,60.80
2018-05-26T17:50:40.725Z,61.30
2018-05-26T17:53:08.279Z,61.90
2018-05-26T17:55:35.791Z,62.60
2018-05-26T17:58:03.331Z,63.10
2018-05-26T18:00:30.835Z,64.10
2018-05-26T18:02:58.374Z,64.90
2018-05-26T18:05:25.878Z,65.50
2018-05-26T18:07:53.431Z,66.60
2018-05-26T18:10:20.954Z,67.90
2018-05-26T18:12:48.511Z,69.20
2018-05-26T18:15:16.022Z,69.60
2018-05-26T18:17:43.577Z,68.50
2018-05-26T18:20:11.099Z,70.50
2018-05-26T18:22:38.641Z,71.90
2018-05-26T18:25:06.155Z,71.50
2018-05-26T18:27:33.733Z,72.20
2018-05-26T18:30:01.249Z,72.20
2018-05-26T18:32:28.805Z,72.30
2018-05-26T18:34:57.094Z,73.60
2018-05-26T18:37:25.365Z,74.50
2018-05-26T18:39:53.684Z,74.60
2018-05-26T18:42:21.205Z,74.60
2018-05-26T18:44:49.519Z,75.20
2018-05-26T18:47:17.039Z,75.20
2018-05-26T18:49:45.357Z,76.20
2018-05-26T18:52:12.869Z,76.10
2018-05-26T18:54:40.425Z,77.40
2018-05-26T18:57:08.707Z,79.20
2018-05-26T18:59:37.009Z,79.70
2018-05-26T19:02:04.504Z,79.60
2018-05-26T19:04:32.056Z,80.10
2018-05-26T19:06:59.589Z,80.30
2018-05-26T19:09:27.131Z,80.60
2018-05-26T19:11:54.644Z,80.90
2018-05-26T19:14:22.208Z,81.40
2018-05-26T19:16:49.728Z,82.20
2018-05-26T19:19:17.237Z,81.80
2018-05-26T19:21:44.784Z,82.10
2018-05-26T19:24:12.316Z,82.10
2018-05-26T19:26:39.871Z,82.30
2018-05-26T19:29:07.382Z,83.50
2018-05-26T19:31:34.941Z,84.10
2018-05-26T19:34:02.457Z,84.60
2018-05-26T19:36:30.006Z,84.90
2018-05-26T19:38:57.513Z,84.90
2018-05-26T19:41:25.058Z,85.00
2018-05-26T19:43:52.570Z,85.00
2018-05-26T19:46:20.128Z,85.20
2018-05-26T19:48:47.668Z,85.50
2018-05-26T19:51:15.988Z,85.80
2018-05-26T19:53:43.546Z,85.80
2018-05-26T19:56:11.112Z,85.90
2018-05-26T19:58:38.628Z,85.70
2018-05-26T20:01:06.939Z,85.90
2018-05-26T20:03:34.450Z,85.90
2018-05-26T20:06:02.011Z,86.30
2018-05-26T20:08:29.526Z,86.10
2018-05-26T20:10:57.022Z,86.00
2018-05-26T20:13:25.336Z,86.30
2018-05-26T20:15:52.860Z,86.40
2018-05-26T20:18:20.441Z,86.60
2018-05-26T20:20:47.935Z,86.80
2018-05-26T20:23:15.515Z,87.00
2018-05-26T20:25:43.023Z,87.20
2018-05-26T20:28:10.586Z,87.60
2018-05-26T20:30:38.851Z,88.70
2018-05-26T20:33:07.152Z,89.20
2018-05-26T20:35:34.650Z,89.00
2018-05-26T20:38:02.503Z,88.90
2018-05-26T20:40:30.000Z,88.80
2018-05-26T20:42:57.554Z,88.70
2018-05-26T20:45:25.063Z,89.10
2018-05-26T20:47:52.606Z,89.60
2018-05-26T20:50:20.125Z,89.70
2018-05-26T20:52:47.671Z,90.00
2018-05-26T20:55:15.210Z,90.00
2018-05-26T20:57:42.722Z,90.00
2018-05-26T21:00:11.034Z,90.20
2018-05-26T21:02:38.541Z,90.20
2018-05-26T21:05:06.087Z,90.30
2018-05-26T21:07:33.598Z,90.50
2018-05-26T21:10:01.162Z,90.40
2018-05-26T21:12:28.681Z,90.30
2018-05-26T21:14:56.235Z,90.30
2018-05-26T21:17:23.753Z,90.40
2018-05-26T21:19:51.305Z,90.50
2018-05-26T21:22:18.823Z,90.60
2018-05-26T21:24:46.371Z,90.70
2018-05-26T21:27:13.882Z,90.50
2018-05-26T21:29:41.439Z,90.70
2018-05-26T21:32:08.963Z,90.90
2018-05-26T21:34:36.506Z,90.90
2018-05-26T21:37:04.023Z,90.80
2018-05-26T21:39:31.588Z,90.90
2018-05-26T21:41:59.092Z,91.00
2018-05-26T21:44:26.604Z,91.00
2018-05-26T21:46:54.153Z,91.20
2018-05-26T21:49:21.665Z,91.30
2018-05-26T21:51:49.229Z,91.40
2018-05-26T21:54:16.744Z,91.60
2018-05-26T21:56:44.485Z,91.60
2018-05-26T21:59:11.994Z,91.70
2018-05-26T22:01:39.538Z,91.80
2018-05-26T22:04:07.042Z,91.90
2018-05-26T22:06:34.598Z,91.80
2018-05-26T22:09:02.871Z,92.10
2018-05-26T22:11:30.417Z,92.00
2018-05-26T22:13:57.931Z,92.10
2018-05-26T22:16:25.492Z,92.30
2018-05-26T22:18:53.005Z,92.30
2018-05-26T22:21:20.514Z,92.30
2018-05-26T22:23:48.057Z,92.40
2018-05-26T22:26:15.554Z,92.40
2018-05-26T22:28:43.106Z,92.50
2018-05-26T22:31:10.623Z,92.50
2018-05-26T22:33:38.183Z,92.50
2018-05-26T22:36:05.693Z,92.50
2018-05-26T22:38:33.244Z,92.40
2018-05-26T22:41:00.768Z,92.40
2018-05-26T22:43:28.321Z,92.50
2018-05-26T22:45:55.838Z,92.50
2018-05-26T22:48:23.348Z,92.40
2018-05-26T22:50:50.904Z,92.50
2018-05-26T22:53:18.416Z,92.50
2018-05-26T22:55:45.959Z,92.50
2018-05-26T22:58:13.464Z,92.50
2018-05-26T23:00:41.789Z,92.40
2018-05-26T23:03:09.303Z,92.40
2018-05-26T23:05:36.852Z,92.40
2018-05-26T23:08:05.133Z,92.40
2018-05-26T23:10:33.452Z,92.60
2018-05-26T23:13:00.972Z,92.50
2018-05-26T23:15:28.525Z,92.50
2018-05-26T23:17:56.043Z,92.60
2018-05-26T23:20:23.605Z,92.50
2018-05-26T23:22:51.119Z,92.60
2018-05-26T23:25:18.677Z,92.50
2018-05-26T23:27:46.199Z,92.60
2018-05-26T23:30:13.755Z,92.60
2018-05-26T23:32:41.266Z,92.60
2018-05-26T23:35:08.810Z,92.50
2018-05-26T23:37:36.332Z,92.60
2018-05-26T23:40:03.943Z,92.70
2018-05-26T23:42:31.456Z,92.60
2018-05-26T23:44:58.977Z,92.70
2018-05-26T23:47:26.556Z,92.60
2018-05-26T23:49:54.077Z,92.60
2018-05-26T23:52:21.615Z,92.70
2018-05-26T23:54:49.139Z,92.70
2018-05-26T23:57:17.440Z,92.70
2018-05-26T23:59:44.958Z,92.70
